TFFR

Pointe-a-Pitre Le Raizet

Code ICAO TFFR
Code IATA PTP
Nom Pointe-a-Pitre Le Raizet
Emplacement Pointe-a-Pitre Le Raizet, Guadeloupe, GP
Élévation 36 pieds / 11 mètres
Latitude 16.26530075
Longitude -61.53179932
METAR TFFR 240600Z AUTO VRB02KT 9999 -RA SCT025/// SCT039/// BKN062/// ///TCU 22/21 Q1013
Informations extras Afficher cartes et CFS
Afficher NOTAMS
Piste Longueur Largeur Surface Élévation
12 11499 ft 148 ft ASP 5 ft
30 11499 ft 148 ft ASP 32 ft